sensor_id;sensor_type;location;lat;lon;timestamp;P1;durP1;ratioP1;P2;durP2;ratioP2
74102;SDS011;62853;46.166;3.640;2023-06-04T00:00:24;4.57;;;2.85;;
74102;SDS011;62853;46.166;3.640;2023-06-04T00:02:50;6.80;;;2.80;;
74102;SDS011;62853;46.166;3.640;2023-06-04T00:05:15;4.63;;;2.42;;
74102;SDS011;62853;46.166;3.640;2023-06-04T00:07:41;4.22;;;2.80;;
74102;SDS011;62853;46.166;3.640;2023-06-04T00:10:06;4.50;;;2.70;;
74102;SDS011;62853;46.166;3.640;2023-06-04T00:12:32;6.63;;;2.90;;
74102;SDS011;62853;46.166;3.640;2023-06-04T00:14:57;4.55;;;2.58;;
74102;SDS011;62853;46.166;3.640;2023-06-04T00:17:22;5.10;;;2.67;;
74102;SDS011;62853;46.166;3.640;2023-06-04T00:19:48;3.60;;;2.90;;
74102;SDS011;62853;46.166;3.640;2023-06-04T00:22:13;6.43;;;2.67;;
74102;SDS011;62853;46.166;3.640;2023-06-04T00:24:39;4.95;;;2.60;;
74102;SDS011;62853;46.166;3.640;2023-06-04T00:27:06;3.03;;;2.38;;
74102;SDS011;62853;46.166;3.640;2023-06-04T00:29:32;3.17;;;2.47;;
74102;SDS011;62853;46.166;3.640;2023-06-04T00:31:58;8.52;;;3.00;;
74102;SDS011;62853;46.166;3.640;2023-06-04T00:34:23;6.45;;;2.60;;
74102;SDS011;62853;46.166;3.640;2023-06-04T00:36:49;4.40;;;2.60;;
74102;SDS011;62853;46.166;3.640;2023-06-04T00:39:14;2.95;;;2.38;;
74102;SDS011;62853;46.166;3.640;2023-06-04T00:41:39;5.25;;;2.33;;
74102;SDS011;62853;46.166;3.640;2023-06-04T00:44:05;5.95;;;2.50;;
74102;SDS011;62853;46.166;3.640;2023-06-04T00:46:31;5.40;;;2.53;;
74102;SDS011;62853;46.166;3.640;2023-06-04T00:48:57;3.15;;;2.30;;
74102;SDS011;62853;46.166;3.640;2023-06-04T00:51:22;4.28;;;2.58;;
74102;SDS011;62853;46.166;3.640;2023-06-04T00:53:48;2.92;;;2.38;;
74102;SDS011;62853;46.166;3.640;2023-06-04T00:56:15;4.93;;;2.28;;
74102;SDS011;62853;46.166;3.640;2023-06-04T00:58:40;4.90;;;2.78;;
74102;SDS011;62853;46.166;3.640;2023-06-04T01:01:10;5.63;;;2.60;;
74102;SDS011;62853;46.166;3.640;2023-06-04T01:03:45;4.82;;;2.40;;
74102;SDS011;62853;46.166;3.640;2023-06-04T01:08:57;5.38;;;2.60;;
74102;SDS011;62853;46.166;3.640;2023-06-04T01:11:39;3.97;;;2.53;;
74102;SDS011;62853;46.166;3.640;2023-06-04T01:14:07;6.78;;;2.63;;
74102;SDS011;62853;46.166;3.640;2023-06-04T01:16:39;4.15;;;2.72;;
74102;SDS011;62853;46.166;3.640;2023-06-04T01:19:19;3.75;;;2.30;;
74102;SDS011;62853;46.166;3.640;2023-06-04T01:22:03;6.03;;;2.30;;
74102;SDS011;62853;46.166;3.640;2023-06-04T01:24:36;3.00;;;2.20;;
74102;SDS011;62853;46.166;3.640;2023-06-04T01:27:06;7.25;;;2.60;;
74102;SDS011;62853;46.166;3.640;2023-06-04T01:29:33;5.38;;;2.70;;
74102;SDS011;62853;46.166;3.640;2023-06-04T01:32:01;4.22;;;2.58;;
74102;SDS011;62853;46.166;3.640;2023-06-04T01:34:26;4.30;;;2.50;;
74102;SDS011;62853;46.166;3.640;2023-06-04T01:36:51;5.20;;;2.83;;
74102;SDS011;62853;46.166;3.640;2023-06-04T01:39:17;3.95;;;2.17;;
74102;SDS011;62853;46.166;3.640;2023-06-04T01:41:42;3.47;;;2.60;;
74102;SDS011;62853;46.166;3.640;2023-06-04T01:44:08;3.85;;;2.35;;
74102;SDS011;62853;46.166;3.640;2023-06-04T01:46:33;5.28;;;2.60;;
74102;SDS011;62853;46.166;3.640;2023-06-04T01:48:58;6.72;;;2.63;;
74102;SDS011;62853;46.166;3.640;2023-06-04T01:51:24;4.32;;;2.63;;
74102;SDS011;62853;46.166;3.640;2023-06-04T01:53:49;7.47;;;2.35;;
74102;SDS011;62853;46.166;3.640;2023-06-04T01:56:15;6.88;;;2.95;;
74102;SDS011;62853;46.166;3.640;2023-06-04T01:58:40;4.07;;;2.53;;
74102;SDS011;62853;46.166;3.640;2023-06-04T02:01:05;3.67;;;2.60;;
74102;SDS011;62853;46.166;3.640;2023-06-04T02:03:31;5.28;;;2.47;;
74102;SDS011;62853;46.166;3.640;2023-06-04T02:06:02;6.53;;;2.60;;
74102;SDS011;62853;46.166;3.640;2023-06-04T02:08:29;3.85;;;2.42;;
74102;SDS011;62853;46.166;3.640;2023-06-04T02:10:55;4.55;;;2.50;;
74102;SDS011;62853;46.166;3.640;2023-06-04T02:13:21;4.28;;;2.55;;
74102;SDS011;62853;46.166;3.640;2023-06-04T02:15:46;4.55;;;2.33;;
74102;SDS011;62853;46.166;3.640;2023-06-04T02:18:12;6.18;;;2.80;;
74102;SDS011;62853;46.166;3.640;2023-06-04T02:20:46;6.43;;;2.60;;
74102;SDS011;62853;46.166;3.640;2023-06-04T02:23:13;4.57;;;2.75;;
74102;SDS011;62853;46.166;3.640;2023-06-04T02:25:39;5.82;;;2.45;;
74102;SDS011;62853;46.166;3.640;2023-06-04T02:28:05;6.18;;;2.35;;
74102;SDS011;62853;46.166;3.640;2023-06-04T02:30:31;4.13;;;2.58;;
74102;SDS011;62853;46.166;3.640;2023-06-04T02:32:56;5.90;;;2.50;;
74102;SDS011;62853;46.166;3.640;2023-06-04T02:35:25;5.22;;;2.53;;
74102;SDS011;62853;46.166;3.640;2023-06-04T02:37:52;6.40;;;2.95;;
74102;SDS011;62853;46.166;3.640;2023-06-04T02:40:17;2.80;;;2.35;;
74102;SDS011;62853;46.166;3.640;2023-06-04T02:42:42;5.25;;;2.30;;
74102;SDS011;62853;46.166;3.640;2023-06-04T02:45:08;7.47;;;2.97;;
74102;SDS011;62853;46.166;3.640;2023-06-04T02:47:35;5.82;;;2.47;;
74102;SDS011;62853;46.166;3.640;2023-06-04T02:50:00;6.85;;;2.97;;
74102;SDS011;62853;46.166;3.640;2023-06-04T02:52:26;5.68;;;2.65;;
74102;SDS011;62853;46.166;3.640;2023-06-04T02:54:51;4.20;;;2.70;;
74102;SDS011;62853;46.166;3.640;2023-06-04T02:57:16;3.78;;;2.50;;
74102;SDS011;62853;46.166;3.640;2023-06-04T02:59:42;5.88;;;2.72;;
74102;SDS011;62853;46.166;3.640;2023-06-04T03:02:07;5.43;;;2.80;;
74102;SDS011;62853;46.166;3.640;2023-06-04T03:04:33;5.93;;;2.65;;
74102;SDS011;62853;46.166;3.640;2023-06-04T03:07:00;5.82;;;3.10;;
74102;SDS011;62853;46.166;3.640;2023-06-04T03:09:27;5.25;;;2.95;;
74102;SDS011;62853;46.166;3.640;2023-06-04T03:11:52;4.57;;;2.70;;
74102;SDS011;62853;46.166;3.640;2023-06-04T03:14:18;5.70;;;3.13;;
74102;SDS011;62853;46.166;3.640;2023-06-04T03:16:43;3.72;;;2.72;;
74102;SDS011;62853;46.166;3.640;2023-06-04T03:19:10;6.75;;;2.70;;
74102;SDS011;62853;46.166;3.640;2023-06-04T03:21:36;5.63;;;2.83;;
74102;SDS011;62853;46.166;3.640;2023-06-04T03:24:05;4.85;;;2.78;;
74102;SDS011;62853;46.166;3.640;2023-06-04T03:26:31;3.13;;;2.47;;
74102;SDS011;62853;46.166;3.640;2023-06-04T03:28:57;3.90;;;2.60;;
74102;SDS011;62853;46.166;3.640;2023-06-04T03:31:22;4.63;;;2.75;;
74102;SDS011;62853;46.166;3.640;2023-06-04T03:33:47;3.08;;;2.85;;
74102;SDS011;62853;46.166;3.640;2023-06-04T03:36:13;4.50;;;2.80;;
74102;SDS011;62853;46.166;3.640;2023-06-04T03:38:38;4.88;;;3.28;;
74102;SDS011;62853;46.166;3.640;2023-06-04T03:41:03;4.45;;;3.00;;
74102;SDS011;62853;46.166;3.640;2023-06-04T03:43:29;7.47;;;3.20;;
74102;SDS011;62853;46.166;3.640;2023-06-04T03:45:54;5.07;;;3.05;;
74102;SDS011;62853;46.166;3.640;2023-06-04T03:48:20;6.13;;;3.08;;
74102;SDS011;62853;46.166;3.640;2023-06-04T03:50:45;5.95;;;3.30;;
74102;SDS011;62853;46.166;3.640;2023-06-04T03:53:14;7.45;;;2.80;;
74102;SDS011;62853;46.166;3.640;2023-06-04T03:55:39;4.32;;;3.00;;
74102;SDS011;62853;46.166;3.640;2023-06-04T03:58:05;4.90;;;3.17;;
74102;SDS011;62853;46.166;3.640;2023-06-04T04:00:31;3.63;;;2.90;;
74102;SDS011;62853;46.166;3.640;2023-06-04T04:02:56;7.97;;;3.22;;
74102;SDS011;62853;46.166;3.640;2023-06-04T04:05:22;6.00;;;3.22;;
74102;SDS011;62853;46.166;3.640;2023-06-04T04:07:47;3.55;;;2.88;;
74102;SDS011;62853;46.166;3.640;2023-06-04T04:10:13;5.07;;;3.08;;
74102;SDS011;62853;46.166;3.640;2023-06-04T04:12:38;3.50;;;3.15;;
74102;SDS011;62853;46.166;3.640;2023-06-04T04:15:04;4.95;;;3.15;;
74102;SDS011;62853;46.166;3.640;2023-06-04T04:17:29;4.75;;;2.78;;
74102;SDS011;62853;46.166;3.640;2023-06-04T04:19:55;4.28;;;3.00;;
74102;SDS011;62853;46.166;3.640;2023-06-04T04:22:20;4.45;;;3.00;;
74102;SDS011;62853;46.166;3.640;2023-06-04T04:24:46;6.63;;;3.45;;
74102;SDS011;62853;46.166;3.640;2023-06-04T04:27:11;4.93;;;2.95;;
74102;SDS011;62853;46.166;3.640;2023-06-04T04:29:38;4.45;;;2.75;;
74102;SDS011;62853;46.166;3.640;2023-06-04T04:32:04;4.22;;;3.10;;
74102;SDS011;62853;46.166;3.640;2023-06-04T04:34:35;5.82;;;3.50;;
74102;SDS011;62853;46.166;3.640;2023-06-04T04:37:02;6.35;;;3.30;;
74102;SDS011;62853;46.166;3.640;2023-06-04T04:39:28;6.75;;;3.42;;
74102;SDS011;62853;46.166;3.640;2023-06-04T04:41:54;4.38;;;3.15;;
74102;SDS011;62853;46.166;3.640;2023-06-04T04:44:20;6.25;;;3.30;;
74102;SDS011;62853;46.166;3.640;2023-06-04T04:46:45;7.63;;;3.80;;
74102;SDS011;62853;46.166;3.640;2023-06-04T04:49:11;5.47;;;3.60;;
74102;SDS011;62853;46.166;3.640;2023-06-04T04:51:36;4.35;;;3.45;;
74102;SDS011;62853;46.166;3.640;2023-06-04T04:54:01;5.10;;;3.33;;
74102;SDS011;62853;46.166;3.640;2023-06-04T04:56:27;4.78;;;3.47;;
74102;SDS011;62853;46.166;3.640;2023-06-04T04:58:53;4.35;;;3.20;;
74102;SDS011;62853;46.166;3.640;2023-06-04T05:01:20;6.13;;;3.30;;
74102;SDS011;62853;46.166;3.640;2023-06-04T05:03:45;6.18;;;3.22;;
74102;SDS011;62853;46.166;3.640;2023-06-04T05:06:11;4.20;;;3.25;;
74102;SDS011;62853;46.166;3.640;2023-06-04T05:08:36;6.45;;;3.30;;
74102;SDS011;62853;46.166;3.640;2023-06-04T05:11:02;5.38;;;3.60;;
74102;SDS011;62853;46.166;3.640;2023-06-04T05:13:27;5.20;;;3.20;;
74102;SDS011;62853;46.166;3.640;2023-06-04T05:15:53;4.32;;;3.40;;
74102;SDS011;62853;46.166;3.640;2023-06-04T05:18:18;4.63;;;3.30;;
74102;SDS011;62853;46.166;3.640;2023-06-04T05:20:57;4.97;;;3.50;;
74102;SDS011;62853;46.166;3.640;2023-06-04T05:23:24;5.55;;;3.15;;
74102;SDS011;62853;46.166;3.640;2023-06-04T05:25:51;5.28;;;3.33;;
74102;SDS011;62853;46.166;3.640;2023-06-04T05:28:17;6.93;;;3.20;;
74102;SDS011;62853;46.166;3.640;2023-06-04T05:30:42;4.55;;;3.05;;
74102;SDS011;62853;46.166;3.640;2023-06-04T05:33:08;5.30;;;3.03;;
74102;SDS011;62853;46.166;3.640;2023-06-04T05:35:49;4.88;;;3.75;;
74102;SDS011;62853;46.166;3.640;2023-06-04T05:38:14;6.60;;;3.95;;
74102;SDS011;62853;46.166;3.640;2023-06-04T05:40:51;7.95;;;3.63;;
74102;SDS011;62853;46.166;3.640;2023-06-04T05:43:20;4.85;;;3.33;;
74102;SDS011;62853;46.166;3.640;2023-06-04T05:45:46;7.03;;;3.05;;
74102;SDS011;62853;46.166;3.640;2023-06-04T05:48:12;6.10;;;3.70;;
74102;SDS011;62853;46.166;3.640;2023-06-04T05:50:37;7.72;;;3.38;;
74102;SDS011;62853;46.166;3.640;2023-06-04T05:53:02;5.03;;;3.13;;
74102;SDS011;62853;46.166;3.640;2023-06-04T05:55:28;7.47;;;3.28;;
74102;SDS011;62853;46.166;3.640;2023-06-04T05:57:56;4.38;;;3.05;;
74102;SDS011;62853;46.166;3.640;2023-06-04T06:00:22;4.70;;;3.20;;
74102;SDS011;62853;46.166;3.640;2023-06-04T06:02:48;3.83;;;3.10;;
74102;SDS011;62853;46.166;3.640;2023-06-04T06:05:15;5.30;;;3.13;;
74102;SDS011;62853;46.166;3.640;2023-06-04T06:07:41;5.85;;;2.95;;
74102;SDS011;62853;46.166;3.640;2023-06-04T06:10:06;5.00;;;3.00;;
74102;SDS011;62853;46.166;3.640;2023-06-04T06:12:32;5.10;;;3.20;;
74102;SDS011;62853;46.166;3.640;2023-06-04T06:14:57;4.82;;;2.95;;
74102;SDS011;62853;46.166;3.640;2023-06-04T06:17:23;7.95;;;3.00;;
74102;SDS011;62853;46.166;3.640;2023-06-04T06:19:49;3.90;;;3.00;;
74102;SDS011;62853;46.166;3.640;2023-06-04T06:22:14;3.50;;;3.20;;
74102;SDS011;62853;46.166;3.640;2023-06-04T06:24:40;5.22;;;2.80;;
74102;SDS011;62853;46.166;3.640;2023-06-04T06:27:06;4.07;;;2.78;;
74102;SDS011;62853;46.166;3.640;2023-06-04T06:29:31;4.40;;;3.00;;
74102;SDS011;62853;46.166;3.640;2023-06-04T06:31:57;4.65;;;2.92;;
74102;SDS011;62853;46.166;3.640;2023-06-04T06:34:23;3.00;;;2.58;;
74102;SDS011;62853;46.166;3.640;2023-06-04T06:36:48;4.85;;;3.15;;
74102;SDS011;62853;46.166;3.640;2023-06-04T06:39:14;4.03;;;3.40;;
74102;SDS011;62853;46.166;3.640;2023-06-04T06:41:41;9.15;;;3.28;;
74102;SDS011;62853;46.166;3.640;2023-06-04T06:44:06;7.45;;;3.08;;
74102;SDS011;62853;46.166;3.640;2023-06-04T06:46:32;7.28;;;2.75;;
74102;SDS011;62853;46.166;3.640;2023-06-04T06:48:57;5.80;;;2.70;;
74102;SDS011;62853;46.166;3.640;2023-06-04T06:51:23;6.88;;;2.95;;
74102;SDS011;62853;46.166;3.640;2023-06-04T06:53:49;3.78;;;2.70;;
74102;SDS011;62853;46.166;3.640;2023-06-04T06:56:15;4.22;;;2.63;;
74102;SDS011;62853;46.166;3.640;2023-06-04T06:58:43;3.85;;;2.58;;
74102;SDS011;62853;46.166;3.640;2023-06-04T07:01:09;5.13;;;2.72;;
74102;SDS011;62853;46.166;3.640;2023-06-04T07:03:34;4.63;;;2.63;;
74102;SDS011;62853;46.166;3.640;2023-06-04T07:06:00;5.47;;;2.47;;
74102;SDS011;62853;46.166;3.640;2023-06-04T07:08:25;4.65;;;2.50;;
74102;SDS011;62853;46.166;3.640;2023-06-04T07:10:50;4.93;;;2.20;;
74102;SDS011;62853;46.166;3.640;2023-06-04T07:13:16;3.58;;;2.50;;
74102;SDS011;62853;46.166;3.640;2023-06-04T07:15:41;3.80;;;2.72;;
74102;SDS011;62853;46.166;3.640;2023-06-04T07:18:09;7.20;;;2.45;;
74102;SDS011;62853;46.166;3.640;2023-06-04T07:20:35;4.28;;;1.90;;
74102;SDS011;62853;46.166;3.640;2023-06-04T07:23:00;3.47;;;2.03;;
74102;SDS011;62853;46.166;3.640;2023-06-04T07:25:26;3.08;;;2.00;;
74102;SDS011;62853;46.166;3.640;2023-06-04T07:27:51;4.78;;;1.80;;
74102;SDS011;62853;46.166;3.640;2023-06-04T07:30:17;4.13;;;1.90;;
74102;SDS011;62853;46.166;3.640;2023-06-04T07:32:47;3.22;;;2.00;;
74102;SDS011;62853;46.166;3.640;2023-06-04T07:35:13;2.67;;;1.90;;
74102;SDS011;62853;46.166;3.640;2023-06-04T07:37:38;2.92;;;1.70;;
74102;SDS011;62853;46.166;3.640;2023-06-04T07:40:04;2.40;;;1.85;;
74102;SDS011;62853;46.166;3.640;2023-06-04T07:42:30;3.10;;;1.60;;
74102;SDS011;62853;46.166;3.640;2023-06-04T07:44:55;2.70;;;2.00;;
74102;SDS011;62853;46.166;3.640;2023-06-04T07:47:24;2.03;;;1.50;;
74102;SDS011;62853;46.166;3.640;2023-06-04T07:49:49;1.65;;;1.50;;
74102;SDS011;62853;46.166;3.640;2023-06-04T07:52:17;1.77;;;1.60;;
74102;SDS011;62853;46.166;3.640;2023-06-04T07:54:43;2.78;;;1.52;;
74102;SDS011;62853;46.166;3.640;2023-06-04T07:57:08;1.90;;;1.55;;
74102;SDS011;62853;46.166;3.640;2023-06-04T07:59:35;4.53;;;1.67;;
74102;SDS011;62853;46.166;3.640;2023-06-04T08:02:00;3.92;;;1.70;;
74102;SDS011;62853;46.166;3.640;2023-06-04T08:04:28;2.97;;;1.60;;
74102;SDS011;62853;46.166;3.640;2023-06-04T08:06:54;3.28;;;1.50;;
74102;SDS011;62853;46.166;3.640;2023-06-04T08:09:20;2.03;;;1.20;;
74102;SDS011;62853;46.166;3.640;2023-06-04T08:11:45;2.83;;;1.70;;
74102;SDS011;62853;46.166;3.640;2023-06-04T08:14:11;5.10;;;1.40;;
74102;SDS011;62853;46.166;3.640;2023-06-04T08:16:39;2.95;;;1.50;;
74102;SDS011;62853;46.166;3.640;2023-06-04T08:19:05;3.60;;;1.52;;
74102;SDS011;62853;46.166;3.640;2023-06-04T08:21:32;4.20;;;1.40;;
74102;SDS011;62853;46.166;3.640;2023-06-04T08:23:58;3.13;;;1.50;;
74102;SDS011;62853;46.166;3.640;2023-06-04T08:26:24;4.13;;;1.70;;
74102;SDS011;62853;46.166;3.640;2023-06-04T08:28:55;1.88;;;1.30;;
74102;SDS011;62853;46.166;3.640;2023-06-04T08:31:21;3.13;;;1.50;;
74102;SDS011;62853;46.166;3.640;2023-06-04T08:33:46;2.42;;;1.45;;
74102;SDS011;62853;46.166;3.640;2023-06-04T08:36:14;2.67;;;1.40;;
74102;SDS011;62853;46.166;3.640;2023-06-04T08:38:42;1.80;;;1.30;;
74102;SDS011;62853;46.166;3.640;2023-06-04T08:43:57;2.40;;;1.20;;
74102;SDS011;62853;46.166;3.640;2023-06-04T08:46:30;1.83;;;1.30;;
74102;SDS011;62853;46.166;3.640;2023-06-04T08:48:59;2.85;;;1.40;;
74102;SDS011;62853;46.166;3.640;2023-06-04T08:51:29;3.13;;;1.52;;
74102;SDS011;62853;46.166;3.640;2023-06-04T08:53:58;3.97;;;1.42;;
74102;SDS011;62853;46.166;3.640;2023-06-04T08:56:25;1.50;;;1.40;;
74102;SDS011;62853;46.166;3.640;2023-06-04T08:58:51;3.33;;;1.40;;
74102;SDS011;62853;46.166;3.640;2023-06-04T09:01:31;2.28;;;1.60;;
74102;SDS011;62853;46.166;3.640;2023-06-04T09:03:58;1.92;;;1.35;;
74102;SDS011;62853;46.166;3.640;2023-06-04T09:06:26;2.90;;;1.33;;
74102;SDS011;62853;46.166;3.640;2023-06-04T09:08:52;1.63;;;1.50;;
74102;SDS011;62853;46.166;3.640;2023-06-04T09:11:21;5.78;;;1.77;;
74102;SDS011;62853;46.166;3.640;2023-06-04T09:13:48;2.95;;;1.38;;
74102;SDS011;62853;46.166;3.640;2023-06-04T09:16:16;1.92;;;1.33;;
74102;SDS011;62853;46.166;3.640;2023-06-04T09:18:41;1.48;;;1.38;;
74102;SDS011;62853;46.166;3.640;2023-06-04T09:21:08;4.32;;;1.40;;
74102;SDS011;62853;46.166;3.640;2023-06-04T09:23:39;2.40;;;1.45;;
74102;SDS011;62853;46.166;3.640;2023-06-04T09:26:12;4.55;;;1.30;;
74102;SDS011;62853;46.166;3.640;2023-06-04T09:28:42;2.15;;;1.13;;
74102;SDS011;62853;46.166;3.640;2023-06-04T09:31:17;2.72;;;1.70;;
74102;SDS011;62853;46.166;3.640;2023-06-04T09:33:43;2.78;;;1.45;;
74102;SDS011;62853;46.166;3.640;2023-06-04T09:36:15;3.75;;;1.27;;
74102;SDS011;62853;46.166;3.640;2023-06-04T09:38:41;2.85;;;1.30;;
74102;SDS011;62853;46.166;3.640;2023-06-04T09:41:10;1.45;;;1.27;;
74102;SDS011;62853;46.166;3.640;2023-06-04T09:43:37;3.45;;;1.15;;
74102;SDS011;62853;46.166;3.640;2023-06-04T09:46:09;1.85;;;1.20;;
74102;SDS011;62853;46.166;3.640;2023-06-04T09:48:39;2.55;;;1.40;;
74102;SDS011;62853;46.166;3.640;2023-06-04T09:51:11;4.63;;;1.20;;
74102;SDS011;62853;46.166;3.640;2023-06-04T09:53:38;3.22;;;1.40;;
74102;SDS011;62853;46.166;3.640;2023-06-04T09:56:04;3.90;;;1.38;;
74102;SDS011;62853;46.166;3.640;2023-06-04T09:58:36;1.33;;;1.10;;
74102;SDS011;62853;46.166;3.640;2023-06-04T10:01:03;2.53;;;1.33;;
74102;SDS011;62853;46.166;3.640;2023-06-04T10:03:31;1.42;;;1.17;;
74102;SDS011;62853;46.166;3.640;2023-06-04T10:05:58;13.77;;;3.92;;
74102;SDS011;62853;46.166;3.640;2023-06-04T10:08:29;1.85;;;1.33;;
74102;SDS011;62853;46.166;3.640;2023-06-04T10:10:57;3.05;;;1.20;;
74102;SDS011;62853;46.166;3.640;2023-06-04T10:13:26;2.70;;;1.50;;
74102;SDS011;62853;46.166;3.640;2023-06-04T10:15:58;2.10;;;1.20;;
74102;SDS011;62853;46.166;3.640;2023-06-04T10:18:29;4.00;;;1.25;;
74102;SDS011;62853;46.166;3.640;2023-06-04T10:20:55;1.45;;;1.27;;
74102;SDS011;62853;46.166;3.640;2023-06-04T10:23:22;2.53;;;1.20;;
74102;SDS011;62853;46.166;3.640;2023-06-04T10:25:51;2.40;;;1.10;;
74102;SDS011;62853;46.166;3.640;2023-06-04T10:30:46;2.05;;;1.17;;
74102;SDS011;62853;46.166;3.640;2023-06-04T10:33:12;2.47;;;1.27;;
74102;SDS011;62853;46.166;3.640;2023-06-04T10:35:39;2.78;;;1.30;;
74102;SDS011;62853;46.166;3.640;2023-06-04T10:38:05;1.75;;;1.20;;
74102;SDS011;62853;46.166;3.640;2023-06-04T10:40:35;3.45;;;1.20;;
74102;SDS011;62853;46.166;3.640;2023-06-04T10:43:05;2.97;;;1.40;;
74102;SDS011;62853;46.166;3.640;2023-06-04T10:45:31;1.45;;;1.10;;
74102;SDS011;62853;46.166;3.640;2023-06-04T10:48:15;2.58;;;1.30;;
74102;SDS011;62853;46.166;3.640;2023-06-04T10:50:52;2.67;;;1.10;;
74102;SDS011;62853;46.166;3.640;2023-06-04T10:53:18;2.08;;;1.17;;
74102;SDS011;62853;46.166;3.640;2023-06-04T10:55:45;4.95;;;1.42;;
74102;SDS011;62853;46.166;3.640;2023-06-04T10:58:12;2.95;;;1.05;;
74102;SDS011;62853;46.166;3.640;2023-06-04T11:00:42;4.47;;;1.25;;
74102;SDS011;62853;46.166;3.640;2023-06-04T11:03:12;2.25;;;1.25;;
74102;SDS011;62853;46.166;3.640;2023-06-04T11:09:13;2.53;;;1.30;;
74102;SDS011;62853;46.166;3.640;2023-06-04T11:14:32;3.40;;;1.45;;
74102;SDS011;62853;46.166;3.640;2023-06-04T11:17:14;2.78;;;1.27;;
74102;SDS011;62853;46.166;3.640;2023-06-04T11:19:47;2.08;;;1.25;;
74102;SDS011;62853;46.166;3.640;2023-06-04T11:22:36;2.15;;;1.27;;
74102;SDS011;62853;46.166;3.640;2023-06-04T11:25:25;2.25;;;1.30;;
74102;SDS011;62853;46.166;3.640;2023-06-04T11:28:01;4.97;;;1.00;;
74102;SDS011;62853;46.166;3.640;2023-06-04T11:30:37;3.95;;;1.20;;
74102;SDS011;62853;46.166;3.640;2023-06-04T11:33:23;2.55;;;1.30;;
74102;SDS011;62853;46.166;3.640;2023-06-04T11:35:54;5.47;;;1.33;;
74102;SDS011;62853;46.166;3.640;2023-06-04T11:38:53;4.57;;;1.63;;
74102;SDS011;62853;46.166;3.640;2023-06-04T11:41:39;2.03;;;1.15;;
74102;SDS011;62853;46.166;3.640;2023-06-04T11:44:12;2.85;;;1.13;;
74102;SDS011;62853;46.166;3.640;2023-06-04T11:46:51;1.98;;;1.27;;
74102;SDS011;62853;46.166;3.640;2023-06-04T11:49:19;1.90;;;1.17;;
74102;SDS011;62853;46.166;3.640;2023-06-04T11:51:49;1.98;;;1.40;;
74102;SDS011;62853;46.166;3.640;2023-06-04T11:54:17;2.35;;;1.10;;
74102;SDS011;62853;46.166;3.640;2023-06-04T11:56:48;2.40;;;1.25;;
74102;SDS011;62853;46.166;3.640;2023-06-04T11:59:17;1.25;;;1.10;;
74102;SDS011;62853;46.166;3.640;2023-06-04T12:01:50;1.60;;;1.10;;
74102;SDS011;62853;46.166;3.640;2023-06-04T12:04:19;1.33;;;1.05;;
74102;SDS011;62853;46.166;3.640;2023-06-04T12:06:59;2.95;;;1.50;;
74102;SDS011;62853;46.166;3.640;2023-06-04T12:09:30;6.60;;;1.85;;
74102;SDS011;62853;46.166;3.640;2023-06-04T12:12:00;2.42;;;1.40;;
74102;SDS011;62853;46.166;3.640;2023-06-04T12:14:28;2.40;;;1.30;;
74102;SDS011;62853;46.166;3.640;2023-06-04T12:16:56;2.67;;;1.70;;
74102;SDS011;62853;46.166;3.640;2023-06-04T12:19:28;4.22;;;1.40;;
74102;SDS011;62853;46.166;3.640;2023-06-04T12:24:48;1.70;;;1.30;;
74102;SDS011;62853;46.166;3.640;2023-06-04T12:27:18;4.60;;;1.40;;
74102;SDS011;62853;46.166;3.640;2023-06-04T12:29:54;1.73;;;1.45;;
74102;SDS011;62853;46.166;3.640;2023-06-04T12:32:26;2.45;;;1.38;;
74102;SDS011;62853;46.166;3.640;2023-06-04T12:34:57;3.40;;;1.50;;
74102;SDS011;62853;46.166;3.640;2023-06-04T12:37:25;2.92;;;1.58;;
74102;SDS011;62853;46.166;3.640;2023-06-04T12:39:51;2.53;;;1.60;;
74102;SDS011;62853;46.166;3.640;2023-06-04T12:42:16;2.53;;;1.25;;
74102;SDS011;62853;46.166;3.640;2023-06-04T12:44:47;2.45;;;1.50;;
74102;SDS011;62853;46.166;3.640;2023-06-04T12:47:19;5.63;;;1.73;;
74102;SDS011;62853;46.166;3.640;2023-06-04T12:49:46;2.85;;;1.50;;
74102;SDS011;62853;46.166;3.640;2023-06-04T12:52:12;1.85;;;1.38;;
74102;SDS011;62853;46.166;3.640;2023-06-04T12:54:39;2.65;;;1.67;;
74102;SDS011;62853;46.166;3.640;2023-06-04T12:57:05;2.95;;;1.67;;
74102;SDS011;62853;46.166;3.640;2023-06-04T12:59:30;3.10;;;2.00;;
74102;SDS011;62853;46.166;3.640;2023-06-04T13:02:01;2.53;;;1.63;;
74102;SDS011;62853;46.166;3.640;2023-06-04T13:04:27;5.93;;;1.90;;
74102;SDS011;62853;46.166;3.640;2023-06-04T13:06:55;2.88;;;1.60;;
74102;SDS011;62853;46.166;3.640;2023-06-04T13:09:24;3.42;;;1.60;;
74102;SDS011;62853;46.166;3.640;2023-06-04T13:12:01;2.67;;;1.70;;
74102;SDS011;62853;46.166;3.640;2023-06-04T13:14:31;4.80;;;1.63;;
74102;SDS011;62853;46.166;3.640;2023-06-04T13:16:58;2.08;;;1.50;;
74102;SDS011;62853;46.166;3.640;2023-06-04T13:19:27;2.25;;;1.63;;
74102;SDS011;62853;46.166;3.640;2023-06-04T13:21:52;2.88;;;1.67;;
74102;SDS011;62853;46.166;3.640;2023-06-04T13:24:25;5.38;;;1.60;;
74102;SDS011;62853;46.166;3.640;2023-06-04T13:26:50;6.30;;;1.92;;
74102;SDS011;62853;46.166;3.640;2023-06-04T13:29:16;7.07;;;1.90;;
74102;SDS011;62853;46.166;3.640;2023-06-04T13:31:49;1.90;;;1.50;;
74102;SDS011;62853;46.166;3.640;2023-06-04T13:34:14;3.60;;;1.55;;
74102;SDS011;62853;46.166;3.640;2023-06-04T13:36:40;2.08;;;1.50;;
74102;SDS011;62853;46.166;3.640;2023-06-04T13:39:09;3.78;;;1.70;;
74102;SDS011;62853;46.166;3.640;2023-06-04T13:41:34;2.97;;;1.60;;
74102;SDS011;62853;46.166;3.640;2023-06-04T13:44:00;4.00;;;1.58;;
74102;SDS011;62853;46.166;3.640;2023-06-04T13:46:25;3.35;;;1.70;;
74102;SDS011;62853;46.166;3.640;2023-06-04T13:48:51;3.53;;;1.85;;
74102;SDS011;62853;46.166;3.640;2023-06-04T13:51:16;3.00;;;1.60;;
74102;SDS011;62853;46.166;3.640;2023-06-04T13:53:42;3.80;;;1.90;;
74102;SDS011;62853;46.166;3.640;2023-06-04T13:56:07;3.20;;;1.70;;
74102;SDS011;62853;46.166;3.640;2023-06-04T13:58:33;4.50;;;1.73;;
74102;SDS011;62853;46.166;3.640;2023-06-04T14:01:00;2.90;;;1.90;;
74102;SDS011;62853;46.166;3.640;2023-06-04T14:03:29;1.77;;;1.65;;
74102;SDS011;62853;46.166;3.640;2023-06-04T14:05:54;3.63;;;1.83;;
74102;SDS011;62853;46.166;3.640;2023-06-04T14:08:20;4.00;;;1.55;;
74102;SDS011;62853;46.166;3.640;2023-06-04T14:10:45;3.05;;;1.70;;
74102;SDS011;62853;46.166;3.640;2023-06-04T14:13:11;2.05;;;1.73;;
74102;SDS011;62853;46.166;3.640;2023-06-04T14:15:37;5.28;;;1.63;;
74102;SDS011;62853;46.166;3.640;2023-06-04T14:18:03;4.15;;;1.92;;
74102;SDS011;62853;46.166;3.640;2023-06-04T14:20:29;3.88;;;1.67;;
74102;SDS011;62853;46.166;3.640;2023-06-04T14:22:55;2.38;;;1.90;;
74102;SDS011;62853;46.166;3.640;2023-06-04T14:25:20;2.15;;;1.60;;
74102;SDS011;62853;46.166;3.640;2023-06-04T14:27:46;2.78;;;1.70;;
74102;SDS011;62853;46.166;3.640;2023-06-04T14:30:14;3.05;;;1.90;;
74102;SDS011;62853;46.166;3.640;2023-06-04T14:32:42;2.17;;;1.77;;
74102;SDS011;62853;46.166;3.640;2023-06-04T14:35:07;4.28;;;2.10;;
74102;SDS011;62853;46.166;3.640;2023-06-04T14:37:35;4.57;;;1.85;;
74102;SDS011;62853;46.166;3.640;2023-06-04T14:40:03;2.95;;;1.65;;
74102;SDS011;62853;46.166;3.640;2023-06-04T14:42:35;1.95;;;1.60;;
74102;SDS011;62853;46.166;3.640;2023-06-04T14:45:01;3.00;;;1.70;;
74102;SDS011;62853;46.166;3.640;2023-06-04T14:47:29;2.40;;;1.70;;
74102;SDS011;62853;46.166;3.640;2023-06-04T14:49:55;3.25;;;1.60;;
74102;SDS011;62853;46.166;3.640;2023-06-04T14:52:23;2.80;;;1.80;;
74102;SDS011;62853;46.166;3.640;2023-06-04T14:54:48;3.72;;;1.85;;
74102;SDS011;62853;46.166;3.640;2023-06-04T14:57:23;3.58;;;2.28;;
74102;SDS011;62853;46.166;3.640;2023-06-04T14:59:49;1.70;;;1.60;;
74102;SDS011;62853;46.166;3.640;2023-06-04T15:02:17;3.22;;;1.80;;
74102;SDS011;62853;46.166;3.640;2023-06-04T15:04:45;3.42;;;2.15;;
74102;SDS011;62853;46.166;3.640;2023-06-04T15:07:11;2.80;;;1.77;;